createdAt,value
2023-01-19T00:00:19.991Z,15.41
2023-01-19T00:04:19.364Z,15.42
2023-01-19T00:08:20.601Z,15.46
2023-01-19T00:12:19.870Z,15.52
2023-01-19T00:16:19.277Z,15.59
2023-01-19T00:20:18.879Z,15.61
2023-01-19T00:24:20.139Z,15.62
2023-01-19T00:28:20.242Z,15.67
2023-01-19T00:32:19.954Z,15.63
2023-01-19T00:36:19.113Z,15.63
2023-01-19T00:40:20.646Z,15.52
2023-01-19T00:44:19.767Z,15.39
2023-01-19T00:48:18.929Z,15.35
2023-01-19T00:52:18.093Z,15.40
2023-01-19T00:56:19.350Z,15.57
2023-01-19T01:00:19.604Z,15.70
2023-01-19T01:04:18.869Z,15.70
2023-01-19T01:08:18.046Z,15.66
2023-01-19T01:12:19.288Z,15.61
2023-01-19T01:16:18.560Z,15.57
2023-01-19T01:20:19.795Z,15.59
2023-01-19T01:24:18.999Z,15.66
2023-01-19T01:28:20.277Z,15.69
2023-01-19T01:32:19.398Z,15.80
2023-01-19T01:36:18.597Z,15.91
2023-01-19T01:40:18.810Z,15.96
2023-01-19T01:44:36.774Z,15.93
2023-01-19T01:48:40.406Z,15.96
2023-01-19T01:52:43.544Z,15.97
2023-01-19T01:57:04.860Z,15.90
2023-01-19T02:01:16.845Z,15.86
2023-01-19T02:05:20.690Z,15.73
2023-01-19T02:09:36.272Z,15.73
2023-01-19T02:13:36.913Z,15.66
2023-01-19T02:17:36.180Z,15.66
2023-01-19T02:21:40.242Z,15.68
2023-01-19T02:25:41.985Z,15.65
2023-01-19T02:29:41.438Z,15.71
2023-01-19T02:33:40.641Z,15.63
2023-01-19T02:37:41.840Z,15.65
2023-01-19T02:41:47.080Z,15.65
2023-01-19T02:45:46.396Z,15.67
2023-01-19T02:49:45.678Z,15.69
2023-01-19T02:53:51.658Z,15.74
2023-01-19T02:57:57.964Z,15.75
2023-01-19T03:02:13.837Z,15.72
2023-01-19T03:06:19.830Z,15.60
2023-01-19T03:10:21.824Z,15.65
2023-01-19T03:14:25.585Z,15.64
2023-01-19T03:18:26.376Z,15.58
2023-01-19T03:22:27.201Z,15.60
2023-01-19T03:26:29.441Z,15.61
2023-01-19T03:30:32.782Z,15.62
2023-01-19T03:34:32.596Z,15.61
2023-01-19T03:38:34.468Z,15.58
2023-01-19T03:42:34.185Z,15.61
2023-01-19T03:46:35.704Z,15.57
2023-01-19T03:50:34.899Z,15.60
2023-01-19T03:54:34.265Z,15.52
2023-01-19T03:58:33.394Z,15.49
2023-01-19T04:02:34.759Z,15.55
2023-01-19T04:06:33.995Z,15.52
2023-01-19T04:10:33.428Z,15.47
2023-01-19T04:14:32.587Z,15.49
2023-01-19T04:18:35.147Z,15.54
2023-01-19T04:22:34.385Z,15.49
2023-01-19T04:26:33.535Z,15.47
2023-01-19T04:30:32.648Z,15.45
2023-01-19T04:34:33.877Z,15.41
2023-01-19T04:38:33.012Z,15.30
2023-01-19T04:42:31.950Z,15.26
2023-01-19T04:46:31.481Z,15.21
2023-01-19T04:50:32.748Z,15.19
2023-01-19T04:54:32.231Z,15.16
2023-01-19T04:58:31.379Z,15.19
2023-01-19T05:02:30.913Z,15.10
2023-01-19T05:06:32.380Z,15.07
2023-01-19T05:10:31.608Z,15.07
2023-01-19T05:14:30.802Z,15.00
2023-01-19T05:18:35.533Z,14.88
2023-01-19T05:22:36.793Z,14.82
2023-01-19T05:26:35.993Z,14.76
2023-01-19T05:30:35.651Z,14.71
2023-01-19T05:34:34.762Z,14.64
2023-01-19T05:38:36.281Z,14.58
2023-01-19T05:42:34.920Z,14.55
2023-01-19T05:46:35.074Z,14.52
2023-01-19T05:50:34.350Z,14.53
2023-01-19T05:54:35.598Z,14.50
2023-01-19T05:58:35.213Z,14.50
2023-01-19T06:02:33.867Z,14.51
2023-01-19T06:06:33.185Z,14.51
2023-01-19T06:10:34.631Z,14.49
2023-01-19T06:14:36.609Z,14.53
2023-01-19T06:18:35.898Z,14.56
2023-01-19T06:22:35.139Z,14.56
2023-01-19T06:26:37.022Z,14.56
2023-01-19T06:30:35.794Z,14.53
2023-01-19T06:34:35.132Z,14.52
2023-01-19T06:38:34.531Z,14.40
2023-01-19T06:42:35.883Z,14.48
2023-01-19T06:46:35.506Z,14.46
2023-01-19T06:50:34.728Z,14.49
2023-01-19T06:54:33.535Z,14.62
2023-01-19T06:58:35.636Z,14.83
2023-01-19T07:02:35.001Z,14.95
2023-01-19T07:06:34.419Z,15.05
2023-01-19T07:11:26.940Z,15.16
2023-01-19T07:14:55.407Z,15.31
2023-01-19T07:18:54.917Z,15.47
2023-01-19T07:22:57.954Z,15.65
2023-01-19T07:26:58.306Z,15.87
2023-01-19T07:30:59.758Z,16.01
2023-01-19T07:35:00.392Z,16.16
2023-01-19T07:39:07.211Z,16.25
2023-01-19T07:43:09.339Z,16.42
2023-01-19T07:47:12.225Z,16.56
2023-01-19T07:51:17.756Z,16.62
2023-01-19T07:55:17.482Z,16.73
2023-01-19T07:59:19.114Z,16.82
2023-01-19T08:03:21.168Z,16.99
2023-01-19T08:07:22.825Z,17.13
2023-01-19T08:11:22.160Z,17.25
2023-01-19T08:15:22.895Z,17.37
2023-01-19T08:19:26.958Z,17.49
2023-01-19T08:23:30.844Z,17.58
2023-01-19T08:27:30.891Z,17.71
2023-01-19T08:31:29.978Z,17.85
2023-01-19T08:35:31.471Z,17.93
2023-01-19T08:39:30.677Z,18.05
2023-01-19T08:43:30.038Z,18.17
2023-01-19T08:47:29.648Z,18.20
2023-01-19T08:51:31.047Z,18.40
2023-01-19T08:55:31.888Z,18.48
2023-01-19T08:59:31.112Z,18.48
2023-01-19T09:03:29.909Z,18.53
2023-01-19T09:07:35.340Z,18.60
2023-01-19T09:11:36.415Z,18.70
2023-01-19T09:15:37.345Z,18.69
2023-01-19T09:19:36.195Z,18.75
2023-01-19T09:23:37.755Z,18.90
2023-01-19T09:27:37.376Z,19.19
2023-01-19T09:31:36.781Z,19.24
2023-01-19T09:35:36.582Z,19.31
2023-01-19T09:39:38.094Z,19.48
2023-01-19T09:43:41.784Z,19.59
2023-01-19T09:47:40.977Z,19.80
2023-01-19T09:51:41.640Z,19.81
2023-01-19T09:55:43.603Z,19.95
2023-01-19T09:59:47.371Z,19.99
2023-01-19T10:03:46.664Z,20.10
2023-01-19T10:07:54.053Z,20.15
2023-01-19T10:11:59.486Z,20.19
2023-01-19T10:16:04.353Z,20.22
2023-01-19T10:20:05.217Z,20.13
2023-01-19T10:24:07.303Z,20.22
2023-01-19T10:28:08.450Z,20.28
2023-01-19T10:32:10.174Z,20.36
2023-01-19T10:36:18.758Z,20.47
2023-01-19T10:40:25.487Z,20.65
2023-01-19T10:44:28.058Z,20.71
2023-01-19T10:48:27.041Z,20.67
2023-01-19T10:52:30.802Z,20.68
2023-01-19T10:56:32.031Z,20.52
2023-01-19T11:00:35.225Z,20.63
2023-01-19T11:04:42.019Z,20.51
2023-01-19T11:08:41.282Z,20.55
2023-01-19T11:12:42.345Z,20.55
2023-01-19T11:16:47.571Z,20.76
2023-01-19T11:20:50.861Z,20.84
2023-01-19T11:24:51.802Z,20.97
2023-01-19T11:28:53.459Z,20.88
2023-01-19T11:32:59.030Z,20.95
2023-01-19T11:36:59.152Z,20.85
2023-01-19T11:40:59.020Z,20.83
2023-01-19T11:45:01.108Z,20.85
2023-01-19T11:49:05.670Z,21.03
2023-01-19T11:53:07.944Z,21.02
2023-01-19T11:57:12.690Z,21.00
2023-01-19T12:01:20.998Z,20.97
2023-01-19T12:05:26.460Z,21.01
2023-01-19T12:09:27.107Z,21.00
2023-01-19T12:13:26.641Z,21.04
2023-01-19T12:17:28.190Z,21.01
2023-01-19T12:21:30.573Z,20.94
2023-01-19T12:25:34.844Z,20.84
2023-01-19T12:29:36.557Z,20.95
2023-01-19T12:33:39.971Z,20.88
2023-01-19T12:37:44.255Z,20.84
2023-01-19T12:41:45.770Z,20.86
2023-01-19T12:45:47.721Z,20.94
2023-01-19T12:49:48.223Z,21.04
2023-01-19T12:53:57.599Z,20.95
2023-01-19T12:58:00.959Z,20.87
2023-01-19T13:02:27.596Z,20.80
2023-01-19T13:06:41.809Z,20.85
2023-01-19T13:11:09.208Z,20.83
2023-01-19T13:15:26.928Z,20.81
2023-01-19T13:19:34.829Z,20.76
2023-01-19T13:23:53.459Z,20.60
2023-01-19T13:27:53.275Z,20.62
2023-01-19T13:31:54.750Z,20.65
2023-01-19T13:35:58.216Z,20.50
2023-01-19T13:39:58.819Z,20.39
2023-01-19T13:44:03.537Z,20.25
2023-01-19T13:48:03.386Z,20.21
2023-01-19T13:52:14.019Z,20.13
2023-01-19T13:56:22.370Z,20.11
2023-01-19T14:00:23.929Z,20.03
2023-01-19T14:04:30.467Z,19.92
2023-01-19T14:08:33.495Z,19.88
2023-01-19T14:12:32.206Z,19.71
2023-01-19T14:16:32.021Z,19.66
2023-01-19T14:20:36.380Z,19.61
2023-01-19T14:24:38.349Z,19.58
2023-01-19T14:28:39.026Z,19.49
2023-01-19T14:32:48.179Z,19.42
2023-01-19T14:36:50.179Z,19.27
2023-01-19T14:40:51.832Z,19.12
2023-01-19T14:44:52.853Z,19.04
2023-01-19T14:48:52.975Z,18.94
2023-01-19T14:52:54.521Z,18.82
2023-01-19T14:56:57.481Z,18.70
2023-01-19T15:00:57.797Z,18.58
2023-01-19T15:04:57.496Z,18.50
2023-01-19T15:08:57.366Z,18.38
2023-01-19T15:13:00.099Z,18.30
2023-01-19T15:16:59.428Z,18.24
2023-01-19T15:21:02.458Z,18.16
2023-01-19T15:25:01.366Z,18.14
2023-01-19T15:29:02.883Z,18.04
2023-01-19T15:33:02.008Z,18.00
2023-01-19T15:37:01.404Z,17.98
2023-01-19T15:41:00.588Z,17.91
2023-01-19T15:45:03.294Z,17.89
2023-01-19T15:49:02.187Z,17.83
2023-01-19T15:53:01.616Z,17.78
2023-01-19T15:57:01.262Z,17.72
2023-01-19T16:01:02.793Z,17.65
2023-01-19T16:05:05.021Z,17.54
2023-01-19T16:09:04.796Z,17.46
2023-01-19T16:13:03.998Z,17.38
2023-01-19T16:17:06.123Z,17.28
2023-01-19T16:21:05.689Z,17.23
2023-01-19T16:25:05.177Z,17.13
2023-01-19T16:29:08.327Z,17.05
2023-01-19T16:33:11.181Z,16.99
2023-01-19T16:37:14.719Z,16.90
2023-01-19T16:41:16.341Z,16.82
2023-01-19T16:45:15.839Z,16.79
2023-01-19T16:49:18.130Z,16.75
2023-01-19T16:53:17.809Z,16.79
2023-01-19T16:57:33.633Z,16.78
2023-01-19T17:01:33.326Z,16.82
2023-01-19T17:05:35.025Z,16.77
2023-01-19T17:09:34.084Z,16.74
2023-01-19T17:13:33.482Z,16.74
2023-01-19T17:17:34.659Z,16.70
2023-01-19T17:21:36.536Z,16.59
2023-01-19T17:25:35.932Z,16.54
2023-01-19T17:29:36.377Z,16.48
2023-01-19T17:33:37.260Z,16.43
2023-01-19T17:37:38.567Z,16.34
2023-01-19T17:41:38.009Z,16.28
2023-01-19T17:45:37.814Z,16.29
2023-01-19T17:49:40.766Z,16.26
2023-01-19T17:53:42.939Z,16.28
2023-01-19T17:57:42.460Z,16.24
2023-01-19T18:01:45.113Z,16.23
2023-01-19T18:05:54.304Z,16.28
2023-01-19T18:09:56.810Z,16.28
2023-01-19T18:13:56.328Z,16.30
2023-01-19T18:17:55.694Z,16.29
2023-01-19T18:21:57.608Z,16.34
2023-01-19T18:26:03.418Z,16.41
2023-01-19T18:30:04.772Z,16.42
2023-01-19T18:34:07.655Z,16.38
2023-01-19T18:38:06.511Z,16.41
2023-01-19T18:42:09.779Z,16.43
2023-01-19T18:46:08.984Z,16.41
2023-01-19T18:50:08.803Z,16.38
2023-01-19T18:54:10.472Z,16.33
2023-01-19T18:58:12.069Z,16.35
2023-01-19T19:02:13.171Z,16.34
2023-01-19T19:06:16.978Z,16.30
2023-01-19T19:10:18.604Z,16.18
2023-01-19T19:14:21.521Z,16.18
2023-01-19T19:18:21.425Z,16.15
2023-01-19T19:22:20.288Z,16.13
2023-01-19T19:26:20.280Z,16.22
2023-01-19T19:30:22.530Z,16.20
2023-01-19T19:34:21.705Z,16.12
2023-01-19T19:38:23.957Z,16.15
2023-01-19T19:42:23.449Z,16.26
2023-01-19T19:46:26.056Z,16.31
2023-01-19T19:50:25.658Z,16.37
2023-01-19T19:54:24.599Z,16.35
2023-01-19T19:58:24.239Z,16.23
2023-01-19T20:02:25.674Z,16.11
2023-01-19T20:06:31.148Z,16.02
2023-01-19T20:10:32.100Z,16.04
2023-01-19T20:14:31.670Z,15.93
2023-01-19T20:18:34.245Z,15.72
2023-01-19T20:22:36.541Z,15.66
2023-01-19T20:26:38.871Z,15.46
2023-01-19T20:30:39.464Z,15.23
2023-01-19T20:34:41.180Z,14.95
2023-01-19T20:38:40.841Z,14.72
2023-01-19T20:42:43.178Z,14.69
2023-01-19T20:46:43.208Z,14.49
2023-01-19T20:50:44.396Z,14.39
2023-01-19T20:54:44.746Z,14.35
2023-01-19T20:58:44.161Z,14.45
2023-01-19T21:02:43.972Z,14.50
2023-01-19T21:06:45.860Z,14.65
2023-01-19T21:10:47.071Z,14.58
2023-01-19T21:14:47.452Z,14.55
2023-01-19T21:18:46.636Z,14.54
2023-01-19T21:22:49.141Z,14.45
2023-01-19T21:26:49.823Z,14.01
2023-01-19T21:30:49.476Z,13.92
2023-01-19T21:34:49.653Z,13.93
2023-01-19T21:38:55.200Z,13.53
2023-01-19T21:42:55.241Z,12.85
2023-01-19T21:46:55.453Z,12.73
2023-01-19T21:51:00.800Z,12.85
2023-01-19T21:55:02.800Z,12.88
2023-01-19T21:59:03.622Z,12.95
2023-01-19T22:03:04.598Z,12.76
2023-01-19T22:07:04.570Z,12.93
2023-01-19T22:11:07.158Z,12.91
2023-01-19T22:15:08.232Z,13.13
2023-01-19T22:19:07.915Z,13.27
2023-01-19T22:23:07.581Z,13.35
2023-01-19T22:27:09.800Z,13.23
2023-01-19T22:31:12.758Z,13.37
2023-01-19T22:35:12.666Z,13.46
2023-01-19T22:39:13.460Z,13.18
2023-01-19T22:43:14.734Z,13.10
2023-01-19T22:47:14.327Z,13.26
2023-01-19T22:51:13.827Z,13.25
2023-01-19T22:55:13.161Z,13.28
2023-01-19T22:59:15.099Z,12.94
2023-01-19T23:03:14.221Z,12.45
2023-01-19T23:07:13.697Z,12.51
2023-01-19T23:11:14.079Z,12.69
2023-01-19T23:15:15.874Z,12.75
2023-01-19T23:19:16.753Z,12.91
2023-01-19T23:23:16.533Z,12.79
2023-01-19T23:27:15.464Z,12.53
2023-01-19T23:31:18.590Z,12.62
2023-01-19T23:35:18.972Z,12.84
2023-01-19T23:39:19.573Z,12.75
2023-01-19T23:43:19.160Z,12.63
2023-01-19T23:47:21.001Z,12.54
2023-01-19T23:51:20.609Z,12.61
2023-01-19T23:55:20.066Z,12.78
2023-01-19T23:59:18.912Z,12.68
